Time;durP1;ratioP1;P1;durP2;ratioP2;P2;SDS_P1;SDS_P2;PMS_P1;PMS_P2;Temp;Humidity;BMP_temperature;BMP_pressure;BME280_temperature;BME280_humidity;BME280_pressure;Samples;Min_cycle;Max_cycle;Signal;HPM_P1;HPM_P2
2023/10/07 00:02:50;;;;;;;10.30;9.80;;;;;;;;;;5105987;28;20084;-71
2023/10/07 00:05:16;;;;;;;10.43;9.93;;;;;;;;;;5099374;28;20023;-71
2023/10/07 00:07:45;;;;;;;9.95;9.45;;;;;;;;;;5101329;27;20036;-70
2023/10/07 00:10:25;;;;;;;10.30;9.80;;;;;;;;;;5106279;27;20015;-71
2023/10/07 00:12:51;;;;;;;10.48;9.98;;;;;;;;;;5106898;27;20128;-71
2023/10/07 00:15:17;;;;;;;11.38;10.77;;;;;;;;;;5089931;28;20016;-71
2023/10/07 00:17:43;;;;;;;10.38;9.88;;;;;;;;;;5100921;28;20022;-71
2023/10/07 00:20:11;;;;;;;10.85;10.35;;;;;;;;;;5102768;28;20026;-71
2023/10/07 00:22:41;;;;;;;10.00;9.50;;;;;;;;;;5088313;28;20103;-70
2023/10/07 00:25:07;;;;;;;10.30;9.80;;;;;;;;;;5104705;28;20016;-70
2023/10/07 00:27:38;;;;;;;10.50;10.00;;;;;;;;;;5108810;27;20011;-71
2023/10/07 00:30:12;;;;;;;10.32;9.82;;;;;;;;;;5104650;27;20050;-70
2023/10/07 00:32:38;;;;;;;10.40;9.90;;;;;;;;;;5105370;27;20038;-70
2023/10/07 00:35:06;;;;;;;9.75;9.35;;;;;;;;;;5104793;28;20099;-70
2023/10/07 00:37:33;;;;;;;10.13;9.63;;;;;;;;;;5100958;28;20019;-71
2023/10/07 00:40:10;;;;;;;10.68;10.18;;;;;;;;;;5094152;28;20099;-70
2023/10/07 00:42:35;;;;;;;10.40;9.90;;;;;;;;;;5092106;28;20050;-71
2023/10/07 00:45:07;;;;;;;9.77;9.38;;;;;;;;;;5108025;27;20051;-70
2023/10/07 00:47:34;;;;;;;10.13;9.63;;;;;;;;;;5108318;27;20042;-70
2023/10/07 00:50:00;;;;;;;9.95;9.45;;;;;;;;;;5108963;27;20043;-71
2023/10/07 00:52:29;;;;;;;10.00;9.50;;;;;;;;;;5107196;27;20503;-72
2023/10/07 00:55:18;;;;;;;10.63;10.13;;;;;;;;;;5104282;27;20027;-71
2023/10/07 00:57:53;;;;;;;10.77;10.27;;;;;;;;;;5105002;27;20020;-71
2023/10/07 01:02:45;;;;;;;10.35;9.85;;;;;;;;;;5108146;27;20492;-71
2023/10/07 01:05:14;;;;;;;10.82;10.32;;;;;;;;;;5108044;27;20043;-71
2023/10/07 01:07:41;;;;;;;10.60;10.10;;;;;;;;;;5108009;27;20157;-71
2023/10/07 01:12:39;;;;;;;10.95;10.40;;;;;;;;;;5106079;27;20019;-71
2023/10/07 01:17:45;;;;;;;10.30;9.80;;;;;;;;;;5103371;27;20471;-70
2023/10/07 01:20:13;;;;;;;10.02;9.52;;;;;;;;;;5103467;27;20028;-72
2023/10/07 01:22:43;;;;;;;10.02;9.52;;;;;;;;;;5101019;28;20047;-70
2023/10/07 01:25:11;;;;;;;10.10;9.60;;;;;;;;;;5106514;27;20012;-72
2023/10/07 01:27:49;;;;;;;9.68;9.25;;;;;;;;;;5103710;27;20028;-70
2023/10/07 01:30:17;;;;;;;10.30;9.80;;;;;;;;;;5105168;27;20019;-71
2023/10/07 01:35:39;;;;;;;10.38;9.88;;;;;;;;;;5107034;28;20034;-71
2023/10/07 01:38:07;;;;;;;10.75;10.25;;;;;;;;;;5105539;27;20077;-72
2023/10/07 01:43:31;;;;;;;10.02;9.52;;;;;;;;;;5100836;28;20059;-70
2023/10/07 01:45:57;;;;;;;10.07;9.57;;;;;;;;;;5109129;28;20015;-70
2023/10/07 01:48:23;;;;;;;10.65;10.15;;;;;;;;;;5106314;27;20097;-71
2023/10/07 01:50:50;;;;;;;10.20;9.70;;;;;;;;;;5105926;27;20482;-70
2023/10/07 01:53:15;;;;;;;10.70;10.20;;;;;;;;;;5101197;27;20051;-70
2023/10/07 01:55:44;;;;;;;10.63;10.13;;;;;;;;;;5087813;28;20032;-71
2023/10/07 01:58:13;;;;;;;10.20;9.70;;;;;;;;;;5103661;28;20068;-70
2023/10/07 02:00:45;;;;;;;10.25;9.75;;;;;;;;;;5105887;28;20034;-71
2023/10/07 02:03:13;;;;;;;10.15;9.65;;;;;;;;;;5103856;28;20022;-71
2023/10/07 02:05:46;;;;;;;10.40;9.90;;;;;;;;;;5102063;28;20511;-71
2023/10/07 02:08:14;;;;;;;9.63;9.23;;;;;;;;;;5108319;27;20060;-71
2023/10/07 02:10:41;;;;;;;10.20;9.70;;;;;;;;;;5088961;27;20024;-71
2023/10/07 02:13:12;;;;;;;9.93;9.43;;;;;;;;;;5106333;27;20027;-71
2023/10/07 02:15:42;;;;;;;10.30;9.80;;;;;;;;;;5103837;28;20106;-70
2023/10/07 02:18:12;;;;;;;10.10;9.60;;;;;;;;;;5103606;27;20141;-70
2023/10/07 02:20:40;;;;;;;10.00;9.50;;;;;;;;;;5090323;28;20110;-70
2023/10/07 02:23:12;;;;;;;10.05;9.55;;;;;;;;;;5087239;28;20015;-71
2023/10/07 02:25:40;;;;;;;9.68;9.25;;;;;;;;;;5105657;27;20012;-71
2023/10/07 02:28:06;;;;;;;9.88;9.38;;;;;;;;;;5106125;28;20023;-70
2023/10/07 02:31:24;;;;;;;10.45;9.95;;;;;;;;;;5110881;27;20028;-70
2023/10/07 02:33:26;;;;;;;9.77;9.30;;;;;;;;;;5095291;28;20048;-71
2023/10/07 02:35:55;;;;;;;9.93;9.43;;;;;;;;;;5088751;28;20033;-71
2023/10/07 02:38:25;;;;;;;9.75;9.25;;;;;;;;;;5107067;27;20110;-72
2023/10/07 02:40:50;;;;;;;10.90;10.35;;;;;;;;;;5099464;28;20016;-72
2023/10/07 02:43:16;;;;;;;10.75;10.23;;;;;;;;;;5108536;28;20012;-71
2023/10/07 02:45:42;;;;;;;10.25;9.75;;;;;;;;;;5084759;28;20103;-70
2023/10/07 02:48:11;;;;;;;10.95;10.35;;;;;;;;;;5102698;28;20102;-71
2023/10/07 02:50:42;;;;;;;10.20;9.70;;;;;;;;;;5105748;28;20104;-71
2023/10/07 02:53:14;;;;;;;10.15;9.65;;;;;;;;;;5099943;28;20020;-71
2023/10/07 02:56:43;;;;;;;9.75;9.30;;;;;;;;;;5100097;28;20051;-70
2023/10/07 02:58:49;;;;;;;10.07;9.57;;;;;;;;;;5089915;28;20097;-70
2023/10/07 03:01:18;;;;;;;10.52;10.02;;;;;;;;;;5101624;28;20020;-71
2023/10/07 03:03:49;;;;;;;10.50;10.00;;;;;;;;;;5103696;28;20226;-71
2023/10/07 03:06:17;;;;;;;11.05;10.45;;;;;;;;;;5094799;28;20043;-72
2023/10/07 03:11:20;;;;;;;10.20;9.70;;;;;;;;;;5107858;28;20023;-72
2023/10/07 03:13:45;;;;;;;10.60;10.10;;;;;;;;;;5108344;27;21080;-72
2023/10/07 03:24:08;;;;;;;9.75;9.25;;;;;;;;;;5110997;27;20012;-71
2023/10/07 03:26:34;;;;;;;10.52;10.02;;;;;;;;;;5086833;28;20401;-71
2023/10/07 03:29:04;;;;;;;10.48;9.98;;;;;;;;;;5092681;28;20111;-70
2023/10/07 03:31:52;;;;;;;10.35;9.85;;;;;;;;;;5106445;27;20036;-71
2023/10/07 03:34:15;;;;;;;10.05;9.55;;;;;;;;;;5105467;27;20047;-72
2023/10/07 03:39:37;;;;;;;10.80;10.23;;;;;;;;;;5107221;27;20513;-72
2023/10/07 03:42:04;;;;;;;10.23;9.73;;;;;;;;;;5105179;28;20042;-71
2023/10/07 03:44:31;;;;;;;10.18;9.68;;;;;;;;;;5090873;28;20486;-70
2023/10/07 03:46:57;;;;;;;10.95;10.38;;;;;;;;;;5086512;28;20016;-71
2023/10/07 03:49:22;;;;;;;10.57;10.07;;;;;;;;;;5087858;27;20149;-71
2023/10/07 03:51:48;;;;;;;9.95;9.45;;;;;;;;;;5109988;28;20039;-71
2023/10/07 03:54:24;;;;;;;10.10;9.60;;;;;;;;;;5090472;28;20020;-71
2023/10/07 03:56:49;;;;;;;9.77;9.30;;;;;;;;;;5089712;28;20024;-70
2023/10/07 03:59:15;;;;;;;10.50;10.00;;;;;;;;;;5107117;27;20146;-70
2023/10/07 04:01:42;;;;;;;9.90;9.40;;;;;;;;;;5095768;28;20019;-70
2023/10/07 04:04:11;;;;;;;9.75;9.27;;;;;;;;;;5107480;27;20231;-70
2023/10/07 04:06:38;;;;;;;10.75;10.25;;;;;;;;;;5102902;27;20048;-72
2023/10/07 04:09:07;;;;;;;10.13;9.63;;;;;;;;;;5108983;27;20045;-72
2023/10/07 04:11:34;;;;;;;9.48;9.07;;;;;;;;;;5088524;28;20047;-71
2023/10/07 04:14:06;;;;;;;10.32;9.82;;;;;;;;;;5090816;28;20115;-70
2023/10/07 04:16:33;;;;;;;9.88;9.38;;;;;;;;;;5094425;27;20059;-72
2023/10/07 04:21:43;;;;;;;9.60;9.20;;;;;;;;;;5106516;28;20682;-72
2023/10/07 04:24:09;;;;;;;10.93;10.32;;;;;;;;;;5090944;28;20039;-71
2023/10/07 04:26:37;;;;;;;9.75;9.25;;;;;;;;;;5087393;28;20111;-72
2023/10/07 04:29:07;;;;;;;9.80;9.30;;;;;;;;;;5101264;27;20051;-71
2023/10/07 04:31:37;;;;;;;9.35;8.95;;;;;;;;;;5108733;27;20073;-72
2023/10/07 04:34:11;;;;;;;9.60;9.15;;;;;;;;;;5108072;27;20103;-72
2023/10/07 04:37:08;;;;;;;10.88;10.27;;;;;;;;;;5094747;28;20700;-71
2023/10/07 04:39:28;;;;;;;10.20;9.70;;;;;;;;;;5107044;27;20038;-72
2023/10/07 04:41:58;;;;;;;10.13;9.63;;;;;;;;;;5107130;27;20508;-70
2023/10/07 04:52:30;;;;;;;9.82;9.40;;;;;;;;;;5106196;27;20031;-72
2023/10/07 04:54:58;;;;;;;9.73;9.32;;;;;;;;;;5103381;27;20027;-72
2023/10/07 05:02:59;;;;;;;10.60;10.10;;;;;;;;;;5099743;28;20028;-71
2023/10/07 05:05:28;;;;;;;11.75;11.20;;;;;;;;;;5106972;28;20055;-71
2023/10/07 05:08:11;;;;;;;10.50;10.00;;;;;;;;;;5103656;27;20020;-72
2023/10/07 05:10:41;;;;;;;10.90;10.40;;;;;;;;;;5103953;28;20077;-71
2023/10/07 05:13:07;;;;;;;11.55;11.05;;;;;;;;;;5105375;27;20016;-71
2023/10/07 05:15:41;;;;;;;11.25;10.75;;;;;;;;;;5102029;28;20514;-72
2023/10/07 05:18:07;;;;;;;11.55;11.05;;;;;;;;;;5093513;28;20433;-71
2023/10/07 05:20:33;;;;;;;11.18;10.68;;;;;;;;;;5088592;28;20077;-71
2023/10/07 05:23:02;;;;;;;11.40;10.90;;;;;;;;;;5108600;27;20024;-71
2023/10/07 05:25:28;;;;;;;11.52;11.02;;;;;;;;;;5085699;28;20015;-71
2023/10/07 05:27:55;;;;;;;11.30;10.80;;;;;;;;;;5105613;27;20656;-71
2023/10/07 05:30:21;;;;;;;11.70;11.20;;;;;;;;;;5077976;27;20080;-68
2023/10/07 05:32:47;;;;;;;11.25;10.75;;;;;;;;;;5104627;27;20749;-70
2023/10/07 05:35:18;;;;;;;11.15;10.65;;;;;;;;;;5104269;28;20023;-70
2023/10/07 05:37:44;;;;;;;11.32;10.82;;;;;;;;;;5104676;27;20016;-70
2023/10/07 05:40:13;;;;;;;11.80;11.30;;;;;;;;;;5096252;28;20107;-71
2023/10/07 05:42:39;;;;;;;12.05;11.55;;;;;;;;;;5083418;28;20563;-71
2023/10/07 05:45:04;;;;;;;11.50;11.00;;;;;;;;;;5104899;27;20023;-70
2023/10/07 05:47:32;;;;;;;11.80;11.30;;;;;;;;;;5098503;28;20024;-71
2023/10/07 05:50:00;;;;;;;11.30;10.80;;;;;;;;;;5088386;28;20567;-70
2023/10/07 05:52:26;;;;;;;11.68;11.18;;;;;;;;;;5105778;27;20483;-70
2023/10/07 05:54:53;;;;;;;11.80;11.30;;;;;;;;;;5089327;28;20035;-70
2023/10/07 05:57:18;;;;;;;11.43;10.93;;;;;;;;;;5098706;28;20580;-69
2023/10/07 05:59:43;;;;;;;11.80;11.30;;;;;;;;;;5098246;28;20104;-69
2023/10/07 06:02:14;;;;;;;11.77;11.27;;;;;;;;;;5102841;27;20012;-71
2023/10/07 06:04:41;;;;;;;11.82;11.32;;;;;;;;;;5102003;27;20015;-72
2023/10/07 06:07:06;;;;;;;11.80;11.30;;;;;;;;;;5104050;27;20050;-68
2023/10/07 06:09:32;;;;;;;11.90;11.40;;;;;;;;;;5097496;28;20012;-68
2023/10/07 06:12:09;;;;;;;11.85;11.35;;;;;;;;;;5098711;27;20032;-69
2023/10/07 06:14:37;;;;;;;11.75;11.25;;;;;;;;;;5099999;28;20027;-68
2023/10/07 06:17:06;;;;;;;11.68;11.18;;;;;;;;;;5102022;27;20032;-68
2023/10/07 06:19:33;;;;;;;11.82;11.32;;;;;;;;;;5095635;28;20036;-71
2023/10/07 06:21:59;;;;;;;11.68;11.18;;;;;;;;;;5097473;28;20099;-69
2023/10/07 06:24:26;;;;;;;11.75;11.25;;;;;;;;;;5104303;27;20032;-69
2023/10/07 06:26:53;;;;;;;12.05;11.55;;;;;;;;;;5094732;28;20020;-70
2023/10/07 06:29:19;;;;;;;11.73;11.23;;;;;;;;;;5100411;28;20387;-69
2023/10/07 06:32:22;;;;;;;11.80;11.30;;;;;;;;;;5089818;28;20054;-70
2023/10/07 06:34:44;;;;;;;12.00;11.50;;;;;;;;;;5100004;28;20482;-69
2023/10/07 06:37:10;;;;;;;11.57;11.07;;;;;;;;;;5095763;28;20471;-69
2023/10/07 06:39:35;;;;;;;11.38;10.88;;;;;;;;;;5102609;27;20073;-70
2023/10/07 06:42:01;;;;;;;11.57;11.07;;;;;;;;;;5099014;28;20099;-70
2023/10/07 06:44:26;;;;;;;11.77;11.27;;;;;;;;;;5102531;28;20051;-69
2023/10/07 06:46:56;;;;;;;12.25;11.75;;;;;;;;;;5097330;28;20047;-68
2023/10/07 06:49:22;;;;;;;11.77;11.27;;;;;;;;;;5104060;28;20081;-69
2023/10/07 06:51:54;;;;;;;12.00;11.50;;;;;;;;;;5101179;28;20024;-70
2023/10/07 06:54:23;;;;;;;12.05;11.55;;;;;;;;;;5100048;28;20072;-69
2023/10/07 06:56:54;;;;;;;11.95;11.45;;;;;;;;;;5086260;28;20028;-69
2023/10/07 06:59:27;;;;;;;12.02;11.52;;;;;;;;;;5100813;28;20055;-70
2023/10/07 07:01:55;;;;;;;12.57;11.98;;;;;;;;;;5099575;28;20020;-70
2023/10/07 07:04:22;;;;;;;12.20;11.70;;;;;;;;;;5100601;28;20505;-69
2023/10/07 07:06:58;;;;;;;11.55;11.05;;;;;;;;;;5103776;28;20047;-69
2023/10/07 07:12:21;;;;;;;12.45;11.88;;;;;;;;;;5064685;28;20097;-67
2023/10/07 07:15:04;;;;;;;11.82;11.32;;;;;;;;;;5097725;28;20032;-69
2023/10/07 07:17:43;;;;;;;12.02;11.52;;;;;;;;;;5094215;28;20483;-69
2023/10/07 07:22:37;;;;;;;12.65;12.05;;;;;;;;;;5099066;28;20024;-68
2023/10/07 07:25:12;;;;;;;12.10;11.60;;;;;;;;;;5096187;28;20027;-68
2023/10/07 07:27:50;;;;;;;11.98;11.48;;;;;;;;;;5091648;28;20475;-66
2023/10/07 07:30:31;;;;;;;11.93;11.43;;;;;;;;;;5099182;28;20073;-66
2023/10/07 07:32:59;;;;;;;12.13;11.63;;;;;;;;;;5097975;28;20505;-67
2023/10/07 07:35:38;;;;;;;12.20;11.70;;;;;;;;;;5103042;28;20479;-66
2023/10/07 07:40:49;;;;;;;;;;;;;;;;;;5093315;28;20020;-66
2023/10/07 07:43:15;;;;;;;11.70;11.20;;;;;;;;;;5100630;28;20004;-66
2023/10/07 07:45:40;;;;;;;11.70;11.20;;;;;;;;;;5084374;28;20091;-66
2023/10/07 07:48:06;;;;;;;11.48;10.98;;;;;;;;;;5107229;28;20076;-67
2023/10/07 07:50:35;;;;;;;11.95;11.45;;;;;;;;;;5099507;28;20027;-66
2023/10/07 07:53:09;;;;;;;11.70;11.20;;;;;;;;;;5113190;28;20572;-66
2023/10/07 07:55:36;;;;;;;11.88;11.38;;;;;;;;;;5108978;28;20030;-67
2023/10/07 07:58:03;;;;;;;11.68;11.18;;;;;;;;;;5103891;28;20024;-66
2023/10/07 08:00:31;;;;;;;11.60;11.10;;;;;;;;;;5113299;27;20698;-66
2023/10/07 08:02:58;;;;;;;11.90;11.40;;;;;;;;;;5097922;27;20523;-66
2023/10/07 08:05:28;;;;;;;12.10;11.60;;;;;;;;;;5112408;27;20075;-67
2023/10/07 08:07:54;;;;;;;12.27;11.77;;;;;;;;;;5106355;27;20016;-66
2023/10/07 08:10:20;;;;;;;12.07;11.57;;;;;;;;;;5086809;28;20024;-66
2023/10/07 08:12:47;;;;;;;11.75;11.25;;;;;;;;;;5102285;28;20027;-66
2023/10/07 08:17:38;;;;;;;11.50;11.00;;;;;;;;;;5110441;27;20019;-66
2023/10/07 08:20:12;;;;;;;11.52;11.02;;;;;;;;;;5104279;27;20077;-66
2023/10/07 08:22:45;;;;;;;11.50;11.00;;;;;;;;;;5100816;27;20475;-67
2023/10/07 08:28:09;;;;;;;11.63;11.13;;;;;;;;;;5107801;27;20077;-66
2023/10/07 08:30:37;;;;;;;11.68;11.18;;;;;;;;;;5088032;28;20569;-65
2023/10/07 08:33:06;;;;;;;11.32;10.82;;;;;;;;;;5107879;27;20062;-67
2023/10/07 08:35:34;;;;;;;11.52;11.02;;;;;;;;;;5106068;27;20015;-67
2023/10/07 08:38:16;;;;;;;11.60;11.10;;;;;;;;;;5092277;28;20035;-66
2023/10/07 08:40:49;;;;;;;11.80;11.30;;;;;;;;;;5103218;28;20032;-66
2023/10/07 08:43:19;;;;;;;11.73;11.23;;;;;;;;;;5103326;27;20024;-65
2023/10/07 08:45:45;;;;;;;11.77;11.27;;;;;;;;;;5106362;28;20047;-65
2023/10/07 08:48:16;;;;;;;11.85;11.35;;;;;;;;;;5100997;28;20051;-65
2023/10/07 08:50:55;;;;;;;11.82;11.32;;;;;;;;;;5106907;27;20031;-65
2023/10/07 08:53:23;;;;;;;11.65;11.15;;;;;;;;;;5093495;28;20039;-65
2023/10/07 08:55:51;;;;;;;11.68;11.18;;;;;;;;;;5104991;27;20505;-66
2023/10/07 08:58:17;;;;;;;11.80;11.30;;;;;;;;;;5092477;28;20055;-66
2023/10/07 09:00:45;;;;;;;11.75;11.25;;;;;;;;;;5108222;27;20101;-66
2023/10/07 09:03:14;;;;;;;11.85;11.35;;;;;;;;;;5102003;27;20020;-66
2023/10/07 09:05:40;;;;;;;11.55;11.05;;;;;;;;;;5105702;28;20487;-65
2023/10/07 09:08:11;;;;;;;11.65;11.15;;;;;;;;;;5110349;27;20062;-66
2023/10/07 09:10:36;;;;;;;11.68;11.18;;;;;;;;;;5107766;27;20031;-66
2023/10/07 09:13:08;;;;;;;11.68;11.18;;;;;;;;;;5109874;27;20153;-66
2023/10/07 09:15:36;;;;;;;11.80;11.30;;;;;;;;;;5110332;27;20027;-66
2023/10/07 09:18:05;;;;;;;11.57;11.07;;;;;;;;;;5111249;27;20023;-66
2023/10/07 09:20:33;;;;;;;11.65;11.15;;;;;;;;;;5106588;27;20016;-65
2023/10/07 09:23:22;;;;;;;11.35;10.85;;;;;;;;;;5100546;27;20027;-65
2023/10/07 09:25:51;;;;;;;11.60;11.10;;;;;;;;;;5088646;27;20408;-67
2023/10/07 09:28:35;;;;;;;11.85;11.35;;;;;;;;;;5110286;27;20106;-66
2023/10/07 09:31:09;;;;;;;11.50;11.00;;;;;;;;;;5107094;27;20039;-66
2023/10/07 09:33:35;;;;;;;11.88;11.38;;;;;;;;;;5110371;27;20024;-65
2023/10/07 09:38:48;;;;;;;11.82;11.32;;;;;;;;;;5104139;27;20103;-66
2023/10/07 09:43:51;;;;;;;11.50;11.00;;;;;;;;;;5108932;27;20372;-65
2023/10/07 09:46:24;;;;;;;11.98;11.48;;;;;;;;;;5111365;27;20513;-66
2023/10/07 09:48:51;;;;;;;11.73;11.23;;;;;;;;;;5110835;27;20395;-66
2023/10/07 09:51:24;;;;;;;11.68;11.18;;;;;;;;;;5107052;27;20179;-66
2023/10/07 09:53:58;;;;;;;11.85;11.35;;;;;;;;;;5108463;28;20019;-66
2023/10/07 09:56:44;;;;;;;11.70;11.20;;;;;;;;;;5107845;27;20073;-66
2023/10/07 09:59:25;;;;;;;11.50;11.00;;;;;;;;;;5110694;27;20031;-66
2023/10/07 10:02:25;;;;;;;11.93;11.43;;;;;;;;;;5101510;28;20050;-67
2023/10/07 10:05:05;;;;;;;11.50;11.00;;;;;;;;;;5105632;28;20016;-65
2023/10/07 10:07:40;;;;;;;11.70;11.20;;;;;;;;;;5112153;27;20038;-66
2023/10/07 10:10:15;;;;;;;11.80;11.30;;;;;;;;;;5106791;28;20069;-66
2023/10/07 10:18:05;;;;;;;11.43;10.93;;;;;;;;;;5107179;28;20398;-66
2023/10/07 10:20:42;;;;;;;11.48;10.98;;;;;;;;;;5106855;27;20035;-66
2023/10/07 10:23:18;;;;;;;11.70;11.20;;;;;;;;;;5097187;28;20100;-66
2023/10/07 10:25:48;;;;;;;11.40;10.90;;;;;;;;;;5093212;28;20020;-67
2023/10/07 10:28:34;;;;;;;11.43;10.93;;;;;;;;;;5104902;28;20027;-67
2023/10/07 10:30:59;;;;;;;11.60;11.10;;;;;;;;;;5104383;28;20486;-67
2023/10/07 10:33:32;;;;;;;11.43;10.93;;;;;;;;;;5101704;27;20038;-66
2023/10/07 10:35:59;;;;;;;11.15;10.65;;;;;;;;;;5106755;28;20475;-66
2023/10/07 10:38:34;;;;;;;11.50;11.00;;;;;;;;;;5096374;28;20027;-66
2023/10/07 10:41:04;;;;;;;11.27;10.77;;;;;;;;;;5101841;28;20072;-67
2023/10/07 10:43:31;;;;;;;11.80;11.30;;;;;;;;;;5097450;28;20032;-66
2023/10/07 10:46:06;;;;;;;11.30;10.80;;;;;;;;;;5099505;28;20156;-66
2023/10/07 10:48:36;;;;;;;11.50;11.00;;;;;;;;;;5099416;28;20038;-66
2023/10/07 10:51:09;;;;;;;11.43;10.93;;;;;;;;;;5102614;28;20462;-66
2023/10/07 10:53:41;;;;;;;12.10;11.60;;;;;;;;;;5082254;28;20387;-65
2023/10/07 10:56:10;;;;;;;11.40;10.90;;;;;;;;;;5088249;28;20483;-65
2023/10/07 10:58:36;;;;;;;11.75;11.25;;;;;;;;;;5106449;28;20031;-64
2023/10/07 11:01:02;;;;;;;11.23;10.73;;;;;;;;;;5107729;28;20019;-66
2023/10/07 11:03:30;;;;;;;11.38;10.88;;;;;;;;;;5104606;28;20104;-66
2023/10/07 11:05:58;;;;;;;11.68;11.18;;;;;;;;;;5086922;28;20578;-66
2023/10/07 11:08:28;;;;;;;12.20;11.70;;;;;;;;;;5108757;28;20051;-65
2023/10/07 11:10:55;;;;;;;11.70;11.20;;;;;;;;;;5093469;28;20027;-64
2023/10/07 11:13:22;;;;;;;11.60;11.10;;;;;;;;;;5101306;28;20076;-65
2023/10/07 11:16:11;;;;;;;11.85;11.35;;;;;;;;;;5097910;28;20030;-61
2023/10/07 11:18:38;;;;;;;12.00;11.50;;;;;;;;;;5101012;28;20042;-63
2023/10/07 11:21:11;;;;;;;11.57;11.07;;;;;;;;;;5099479;28;20030;-63
2023/10/07 11:23:46;;;;;;;11.95;11.45;;;;;;;;;;5098691;28;20026;-62
2023/10/07 11:26:11;;;;;;;11.90;11.40;;;;;;;;;;5101363;28;20016;-63
2023/10/07 11:28:38;;;;;;;11.82;11.32;;;;;;;;;;5092063;28;20032;-62
2023/10/07 11:31:06;;;;;;;12.05;11.55;;;;;;;;;;5100916;28;20398;-63
2023/10/07 11:33:34;;;;;;;11.90;11.40;;;;;;;;;;5102510;28;20051;-62
2023/10/07 11:35:59;;;;;;;11.32;10.82;;;;;;;;;;5105778;28;20035;-62
2023/10/07 11:38:25;;;;;;;11.75;11.25;;;;;;;;;;5103512;27;20032;-63
2023/10/07 11:40:51;;;;;;;12.15;11.65;;;;;;;;;;5103644;28;20020;-62
2023/10/07 11:43:16;;;;;;;12.27;11.77;;;;;;;;;;5104546;28;20028;-63
2023/10/07 11:45:43;;;;;;;11.73;11.23;;;;;;;;;;5100138;28;20020;-62
2023/10/07 11:48:09;;;;;;;11.73;11.23;;;;;;;;;;5101461;27;20023;-65
2023/10/07 11:50:35;;;;;;;11.80;11.30;;;;;;;;;;5106252;27;20079;-66
2023/10/07 11:53:02;;;;;;;11.75;11.25;;;;;;;;;;5107438;27;20098;-65
2023/10/07 11:55:27;;;;;;;12.05;11.55;;;;;;;;;;5087302;28;21253;-67
2023/10/07 11:57:54;;;;;;;12.25;11.75;;;;;;;;;;5102276;28;20032;-66
2023/10/07 12:00:34;;;;;;;12.13;11.63;;;;;;;;;;5105909;28;20020;-65
2023/10/07 12:03:06;;;;;;;11.18;10.68;;;;;;;;;;5099037;27;20059;-64
2023/10/07 12:05:32;;;;;;;12.15;11.65;;;;;;;;;;5108497;27;20043;-65
2023/10/07 12:08:04;;;;;;;11.80;11.30;;;;;;;;;;5103785;27;20457;-66
2023/10/07 12:10:30;;;;;;;11.70;11.20;;;;;;;;;;5102368;28;20120;-68
2023/10/07 12:12:58;;;;;;;12.25;11.75;;;;;;;;;;5090158;27;20024;-64
2023/10/07 12:15:25;;;;;;;12.10;11.60;;;;;;;;;;5091430;28;20443;-65
2023/10/07 12:17:50;;;;;;;12.88;12.27;;;;;;;;;;5077902;27;20028;-65
2023/10/07 12:20:16;;;;;;;12.68;12.07;;;;;;;;;;5093313;27;20636;-64
2023/10/07 12:22:42;;;;;;;12.40;11.85;;;;;;;;;;5101914;27;20066;-66
2023/10/07 12:25:18;;;;;;;12.30;11.77;;;;;;;;;;5100436;28;20039;-66
2023/10/07 12:27:44;;;;;;;12.45;11.88;;;;;;;;;;5097396;27;20023;-64
2023/10/07 12:30:11;;;;;;;12.43;11.85;;;;;;;;;;5105080;27;20035;-66
2023/10/07 12:32:42;;;;;;;12.00;11.50;;;;;;;;;;5099454;27;20050;-64
2023/10/07 12:35:11;;;;;;;12.00;11.50;;;;;;;;;;5097138;27;20027;-67
2023/10/07 12:37:39;;;;;;;12.38;11.80;;;;;;;;;;5095299;27;20116;-66
2023/10/07 12:40:10;;;;;;;12.50;11.90;;;;;;;;;;5096337;27;20030;-67
2023/10/07 12:42:35;;;;;;;12.02;11.52;;;;;;;;;;5092447;28;20027;-66
2023/10/07 12:45:01;;;;;;;12.05;11.55;;;;;;;;;;5094923;27;20347;-67
2023/10/07 12:47:29;;;;;;;11.77;11.27;;;;;;;;;;5098170;28;20099;-65
2023/10/07 12:49:55;;;;;;;11.93;11.43;;;;;;;;;;5085934;28;20026;-67
2023/10/07 12:52:20;;;;;;;11.70;11.20;;;;;;;;;;5102163;28;20391;-65
2023/10/07 12:54:46;;;;;;;12.20;11.70;;;;;;;;;;5101069;27;20449;-65
2023/10/07 12:57:15;;;;;;;11.82;11.32;;;;;;;;;;5101894;27;20020;-66
2023/10/07 12:59:42;;;;;;;12.10;11.60;;;;;;;;;;5098082;28;20106;-67
2023/10/07 13:02:09;;;;;;;11.80;11.30;;;;;;;;;;5107095;27;20027;-66
2023/10/07 13:04:35;;;;;;;11.90;11.40;;;;;;;;;;5102121;27;20024;-69
2023/10/07 13:07:09;;;;;;;11.93;11.43;;;;;;;;;;5102089;27;20714;-66
2023/10/07 13:09:35;;;;;;;12.38;11.80;;;;;;;;;;5095491;28;20464;-65
2023/10/07 13:12:05;;;;;;;11.77;11.27;;;;;;;;;;5099713;27;20030;-68
2023/10/07 13:14:31;;;;;;;11.73;11.23;;;;;;;;;;5097119;27;20020;-68
2023/10/07 13:16:56;;;;;;;11.80;11.30;;;;;;;;;;5091543;27;20450;-67
2023/10/07 13:19:26;;;;;;;12.45;11.88;;;;;;;;;;5096718;28;20372;-67
2023/10/07 13:21:52;;;;;;;12.35;11.80;;;;;;;;;;5092946;27;20398;-70
2023/10/07 13:24:17;;;;;;;12.10;11.60;;;;;;;;;;5093836;28;20023;-69
2023/10/07 13:26:44;;;;;;;11.38;10.88;;;;;;;;;;5109263;27;20368;-65
2023/10/07 13:29:12;;;;;;;11.50;11.00;;;;;;;;;;5102707;28;20027;-64
2023/10/07 13:31:40;;;;;;;11.50;11.00;;;;;;;;;;5103616;27;20123;-63
2023/10/07 13:34:07;;;;;;;11.10;10.60;;;;;;;;;;5102295;27;20031;-65
2023/10/07 13:36:41;;;;;;;11.57;11.07;;;;;;;;;;5108560;27;20023;-64
2023/10/07 13:39:15;;;;;;;11.13;10.63;;;;;;;;;;5106526;27;20024;-65
2023/10/07 13:41:40;;;;;;;;;;;;;;;;;;5103574;28;20036;-67
2023/10/07 13:44:09;;;;;;;11.90;11.40;;;;;;;;;;5099985;27;19993;-64
2023/10/07 13:46:35;;;;;;;11.70;11.20;;;;;;;;;;5109277;28;20015;-64
2023/10/07 13:49:02;;;;;;;11.40;10.90;;;;;;;;;;5108587;28;20026;-64
2023/10/07 13:51:31;;;;;;;11.77;11.27;;;;;;;;;;5104532;27;20026;-63
2023/10/07 13:56:49;;;;;;;11.93;11.43;;;;;;;;;;5103553;28;20048;-65
2023/10/07 13:59:15;;;;;;;11.55;11.05;;;;;;;;;;5104147;27;20031;-64
2023/10/07 14:01:44;;;;;;;11.88;11.38;;;;;;;;;;5100855;27;20211;-63
2023/10/07 14:04:14;;;;;;;11.57;11.07;;;;;;;;;;5096771;28;20036;-64
2023/10/07 14:06:41;;;;;;;11.45;10.95;;;;;;;;;;5104093;27;20047;-67
2023/10/07 14:09:15;;;;;;;11.40;10.90;;;;;;;;;;5101046;27;20458;-66
2023/10/07 14:11:41;;;;;;;11.52;11.02;;;;;;;;;;5104420;27;20094;-64
2023/10/07 14:14:06;;;;;;;11.52;11.02;;;;;;;;;;5102942;27;20118;-64
2023/10/07 14:16:34;;;;;;;11.45;10.95;;;;;;;;;;5104466;28;20471;-64
2023/10/07 14:18:59;;;;;;;11.75;11.25;;;;;;;;;;5094100;27;20503;-64
2023/10/07 14:21:25;;;;;;;11.45;10.95;;;;;;;;;;5101625;27;20033;-60
2023/10/07 14:23:51;;;;;;;11.48;10.98;;;;;;;;;;5104197;27;20378;-59
2023/10/07 14:26:17;;;;;;;11.63;11.13;;;;;;;;;;5101913;27;20112;-62
2023/10/07 14:28:45;;;;;;;11.45;10.95;;;;;;;;;;5102923;28;20424;-61
2023/10/07 14:31:18;;;;;;;11.30;10.80;;;;;;;;;;5084954;28;20024;-61
2023/10/07 14:33:45;;;;;;;11.90;11.40;;;;;;;;;;5094197;28;20068;-60
2023/10/07 14:36:10;;;;;;;11.50;11.00;;;;;;;;;;5092084;28;20027;-61
2023/10/07 14:38:41;;;;;;;11.38;10.88;;;;;;;;;;5103026;28;20019;-63
2023/10/07 14:41:07;;;;;;;11.45;10.95;;;;;;;;;;5100576;27;20024;-62
2023/10/07 14:43:33;;;;;;;10.98;10.48;;;;;;;;;;5102921;28;20020;-59
2023/10/07 14:45:58;;;;;;;11.10;10.60;;;;;;;;;;5099590;28;20163;-61
2023/10/07 14:48:24;;;;;;;11.25;10.75;;;;;;;;;;5106944;28;20358;-60
2023/10/07 14:50:50;;;;;;;11.23;10.73;;;;;;;;;;5103254;28;20024;-61
2023/10/07 14:53:15;;;;;;;11.35;10.85;;;;;;;;;;5097475;28;20491;-61
2023/10/07 14:55:44;;;;;;;11.27;10.77;;;;;;;;;;5106651;28;20395;-61
2023/10/07 14:58:19;;;;;;;11.20;10.70;;;;;;;;;;5105654;28;20016;-61
2023/10/07 15:00:47;;;;;;;11.10;10.60;;;;;;;;;;5106296;28;20023;-60
2023/10/07 15:03:16;;;;;;;11.38;10.88;;;;;;;;;;5106835;28;20076;-60
2023/10/07 15:05:44;;;;;;;11.40;10.90;;;;;;;;;;5106977;28;20458;-61
2023/10/07 15:08:11;;;;;;;12.02;11.52;;;;;;;;;;5107660;27;20044;-62
2023/10/07 15:10:43;;;;;;;11.18;10.68;;;;;;;;;;5110327;27;20026;-61
2023/10/07 15:13:09;;;;;;;11.18;10.68;;;;;;;;;;5088918;28;20585;-61
2023/10/07 15:15:37;;;;;;;11.25;10.75;;;;;;;;;;5111592;27;20027;-60
2023/10/07 15:18:03;;;;;;;11.60;11.10;;;;;;;;;;5101972;28;20028;-60
2023/10/07 15:20:30;;;;;;;11.20;10.70;;;;;;;;;;5113718;27;20030;-60
2023/10/07 15:22:56;;;;;;;11.90;11.40;;;;;;;;;;5108054;27;20031;-61
2023/10/07 15:25:21;;;;;;;11.77;11.27;;;;;;;;;;5109603;27;20019;-61
2023/10/07 15:27:46;;;;;;;11.55;11.05;;;;;;;;;;5111044;27;20111;-61
2023/10/07 15:30:12;;;;;;;11.82;11.32;;;;;;;;;;5103373;27;20020;-61
2023/10/07 15:32:39;;;;;;;12.00;11.50;;;;;;;;;;5110012;27;20042;-61
2023/10/07 15:35:06;;;;;;;11.25;10.75;;;;;;;;;;5108396;27;20028;-62
2023/10/07 15:37:32;;;;;;;11.30;10.80;;;;;;;;;;5090811;27;20122;-61
2023/10/07 15:39:57;;;;;;;11.52;11.02;;;;;;;;;;5106800;28;20103;-61
2023/10/07 15:42:26;;;;;;;11.63;11.13;;;;;;;;;;5104944;27;20073;-60
2023/10/07 15:44:53;;;;;;;11.90;11.40;;;;;;;;;;5107996;28;20073;-61